Terminal Aerodrome Forecast
Issued by NWS Brownsville, TX

Home | Current Version | Previous Version | Text Only | Print | Product List | Glossary On
Versions: 1 2 3 4 5 6 7 8 9 10 11 12 13 14 15 16 17 18
000
FTUS44 KBRO 172336
TAFMFE
TAF
KMFE 172336Z 1800/1824 14017G24KT P6SM SCT050
     FM180100 12009KT P6SM BKN020
     FM180700 14006KT 4SM BR VCSH OVC007
     FM181600 19008KT 6SM BR VCSH OVC015
     FM182000 26009KT P6SM OVC025
     FM182200 30007KT P6SM OVC050=

USA.gov is the U.S. government's official web portal to all federal, state and local government web resources and services.